Impacts TAF Board
For situational awareness. Not to be used for flight planning purposes.
IDs:

KSEA - Seattle-Tacoma Intl, WA, US

Issued at 1724 UTC 18 Jun 2019
Updated at 1936 UTC 18 Jun 2019
Potential Impact None Slight Moderate High
Time1927Z 18/20Z 18/21Z 18/22Z 18/23Z 19/00Z 19/01Z 19/02Z 19/03Z 19/04Z 19/05Z 19/06Z 19/07Z 19/08Z>>
Type OBS PRVL PRVL PRVL PRVL PRVL PRVL PRVL PRVL PRVL PRVL PRVL PRVL PRVL
VIS 3 >6 >6 >6 >6 >6 >6 >6 >6 >6 >6 >6 >6 >6
CIG 5 15 15 25 25 35 35 35 35 35 35 35 35 35
Cover OVC OVC OVC BKN BKN BKN BKN BKN BKN BKN BKN OVC OVC OVC
FltCat IFR MVFR MVFR MVFR MVFR VFR VFR VFR VFR VFR VFR VFR VFR VFR
WX BR -- -- -- -- -- -- -- -- -- -- -- -- --
WDir 230 240 240 240 240 250 250 250 250 250 250 190 190 190
WSpd 6 6 6 6 6 6 6 6 6 6 6 12 12 12
WGst -- -- -- -- -- -- -- -- -- -- -- -- -- --
Raw TAF
KSEA 181724Z 1818/1924 VRB06KT 3SM -DZ BR SCT006 OVC012
  TEMPO 1818/1820 1SM -DZ BR BKN006 OVC010
  FM182000 24006KT P6SM SCT008 OVC015
  FM182200 24006KT P6SM SCT015 BKN025
  FM190000 25006KT P6SM SCT025 BKN035 BKN050
  FM190600 19012KT P6SM OVC035
  FM191200 19012KT P6SM OVC022
  FM191800 22013KT P6SM VCSH BKN025 OVC040


Raw METAR
KSEA 181927Z 23006KT 3SM R16L/6000VP6000FT BR BKN005 OVC012 15/14 A3024 RMK AO2 RAE09 VIS NW-N 2 P0000 T01500139
KSEA 181853Z 23008KT 1SM R16L/5000VP6000FT -RA BR BKN005 OVC009 15/13 A3024 RMK AO2 DZE49RAB49 SLP246 P0004 T01500133
KSEA 181753Z 14007KT 1SM R16L/P6000FT -DZ BR BKN006 OVC013 14/13 A3024 RMK AO2 SLP245 P0002 60017 T01440128 10150 20133 51005
KSEA 181653Z 04008KT 1SM R16L/P6000FT -DZ BR BKN005 OVC010 14/12 A3024 RMK AO2 SLP245 P0007 T01390122

METAR Board
Radar Display
Forecast Discussion
For situational awareness. Not to be used for flight planning purposes.